Barra do Corda, Brazil
Current Conditions -  °F | °C
As of 3:00 PM on Wednesday 26 Nov 2014 (Local Time) from SBIZ Reporting Station
Scattered Clouds Scattered Clouds  
Wind Chill: 93°   Ceiling: Unl
Heat Index: 101°   Visibility: 6mi
Dew Point: 72°   Wind: 3mph
Humidity: 49%   Direction: 150°SSE
Pressure: 29.74"   Gusts: NA
Location:  5.51°S, 45.26°W
Report Text: SBIZ 261800Z 15003KT 9999 SCT025 34/22 Q1007
Loading
Personal Weather Stations






























Interactive Weather Map New forecast layout! Learn more

10-Day Weather Forecast

Advertisements
Track Severe Weather on mobile